sensor_id;sensor_type;location;lat;lon;timestamp;P1;durP1;ratioP1;P2;durP2;ratioP2
43070;SDS011;36278;47.952;21.714;2024-03-06T00:01:32;19.70;;;13.63;;
43070;SDS011;36278;47.952;21.714;2024-03-06T00:03:59;20.27;;;14.20;;
43070;SDS011;36278;47.952;21.714;2024-03-06T00:06:24;20.63;;;14.70;;
43070;SDS011;36278;47.952;21.714;2024-03-06T00:08:50;18.93;;;13.63;;
43070;SDS011;36278;47.952;21.714;2024-03-06T00:11:16;18.17;;;13.67;;
43070;SDS011;36278;47.952;21.714;2024-03-06T00:13:42;20.60;;;14.87;;
43070;SDS011;36278;47.952;21.714;2024-03-06T00:16:08;20.13;;;14.27;;
43070;SDS011;36278;47.952;21.714;2024-03-06T00:18:33;18.10;;;14.40;;
43070;SDS011;36278;47.952;21.714;2024-03-06T00:20:59;18.43;;;14.53;;
43070;SDS011;36278;47.952;21.714;2024-03-06T00:23:24;18.03;;;14.00;;
43070;SDS011;36278;47.952;21.714;2024-03-06T00:25:50;19.40;;;14.40;;
43070;SDS011;36278;47.952;21.714;2024-03-06T00:28:15;18.17;;;13.80;;
43070;SDS011;36278;47.952;21.714;2024-03-06T00:30:41;18.73;;;14.43;;
43070;SDS011;36278;47.952;21.714;2024-03-06T00:33:07;18.57;;;13.70;;
43070;SDS011;36278;47.952;21.714;2024-03-06T00:35:32;20.03;;;15.13;;
43070;SDS011;36278;47.952;21.714;2024-03-06T00:37:58;19.20;;;14.73;;
43070;SDS011;36278;47.952;21.714;2024-03-06T00:40:27;19.83;;;14.67;;
43070;SDS011;36278;47.952;21.714;2024-03-06T00:42:55;19.73;;;14.17;;
43070;SDS011;36278;47.952;21.714;2024-03-06T00:45:22;17.67;;;13.97;;
43070;SDS011;36278;47.952;21.714;2024-03-06T00:47:47;20.27;;;14.37;;
43070;SDS011;36278;47.952;21.714;2024-03-06T00:50:13;26.73;;;14.07;;
43070;SDS011;36278;47.952;21.714;2024-03-06T00:52:38;20.20;;;14.03;;
43070;SDS011;36278;47.952;21.714;2024-03-06T00:55:04;17.97;;;13.60;;
43070;SDS011;36278;47.952;21.714;2024-03-06T00:57:30;21.27;;;14.93;;
43070;SDS011;36278;47.952;21.714;2024-03-06T00:59:56;19.73;;;13.83;;
43070;SDS011;36278;47.952;21.714;2024-03-06T01:02:21;16.60;;;12.73;;
43070;SDS011;36278;47.952;21.714;2024-03-06T01:04:47;19.33;;;14.33;;
43070;SDS011;36278;47.952;21.714;2024-03-06T01:07:12;19.67;;;13.53;;
43070;SDS011;36278;47.952;21.714;2024-03-06T01:09:37;20.57;;;13.93;;
43070;SDS011;36278;47.952;21.714;2024-03-06T01:12:03;18.97;;;13.80;;
43070;SDS011;36278;47.952;21.714;2024-03-06T01:14:30;18.97;;;13.80;;
43070;SDS011;36278;47.952;21.714;2024-03-06T01:16:56;18.53;;;13.50;;
43070;SDS011;36278;47.952;21.714;2024-03-06T01:19:21;18.63;;;13.87;;
43070;SDS011;36278;47.952;21.714;2024-03-06T01:21:48;19.57;;;13.93;;
43070;SDS011;36278;47.952;21.714;2024-03-06T01:24:13;18.23;;;13.30;;
43070;SDS011;36278;47.952;21.714;2024-03-06T01:26:39;18.43;;;13.40;;
43070;SDS011;36278;47.952;21.714;2024-03-06T01:29:05;21.53;;;14.47;;
43070;SDS011;36278;47.952;21.714;2024-03-06T01:31:31;18.47;;;13.50;;
43070;SDS011;36278;47.952;21.714;2024-03-06T01:33:56;18.23;;;14.00;;
43070;SDS011;36278;47.952;21.714;2024-03-06T01:36:22;19.23;;;13.57;;
43070;SDS011;36278;47.952;21.714;2024-03-06T01:38:47;18.07;;;14.00;;
43070;SDS011;36278;47.952;21.714;2024-03-06T01:41:14;18.17;;;13.90;;
43070;SDS011;36278;47.952;21.714;2024-03-06T01:43:40;18.27;;;13.53;;
43070;SDS011;36278;47.952;21.714;2024-03-06T01:46:06;17.80;;;13.57;;
43070;SDS011;36278;47.952;21.714;2024-03-06T01:48:31;20.30;;;14.43;;
43070;SDS011;36278;47.952;21.714;2024-03-06T01:50:59;17.40;;;12.97;;
43070;SDS011;36278;47.952;21.714;2024-03-06T01:53:29;20.37;;;14.23;;
43070;SDS011;36278;47.952;21.714;2024-03-06T01:55:56;19.53;;;14.00;;
43070;SDS011;36278;47.952;21.714;2024-03-06T01:58:23;19.10;;;14.27;;
43070;SDS011;36278;47.952;21.714;2024-03-06T02:00:51;21.10;;;15.13;;
43070;SDS011;36278;47.952;21.714;2024-03-06T02:03:18;21.17;;;14.77;;
43070;SDS011;36278;47.952;21.714;2024-03-06T02:05:44;19.77;;;14.07;;
43070;SDS011;36278;47.952;21.714;2024-03-06T02:08:10;20.83;;;15.23;;
43070;SDS011;36278;47.952;21.714;2024-03-06T02:10:35;20.10;;;14.80;;
43070;SDS011;36278;47.952;21.714;2024-03-06T02:13:01;21.40;;;14.77;;
43070;SDS011;36278;47.952;21.714;2024-03-06T02:15:28;21.43;;;14.43;;
43070;SDS011;36278;47.952;21.714;2024-03-06T02:17:53;18.83;;;14.30;;
43070;SDS011;36278;47.952;21.714;2024-03-06T02:20:23;20.50;;;14.10;;
43070;SDS011;36278;47.952;21.714;2024-03-06T02:22:49;19.30;;;14.20;;
43070;SDS011;36278;47.952;21.714;2024-03-06T02:25:15;21.30;;;14.43;;
43070;SDS011;36278;47.952;21.714;2024-03-06T02:27:42;20.97;;;14.77;;
43070;SDS011;36278;47.952;21.714;2024-03-06T02:30:08;19.27;;;13.83;;
43070;SDS011;36278;47.952;21.714;2024-03-06T02:32:34;20.70;;;15.50;;
43070;SDS011;36278;47.952;21.714;2024-03-06T02:35:02;25.97;;;14.93;;
43070;SDS011;36278;47.952;21.714;2024-03-06T02:37:28;20.17;;;14.73;;
43070;SDS011;36278;47.952;21.714;2024-03-06T02:39:54;22.47;;;15.37;;
43070;SDS011;36278;47.952;21.714;2024-03-06T02:42:19;18.07;;;13.60;;
43070;SDS011;36278;47.952;21.714;2024-03-06T02:44:45;19.13;;;14.03;;
43070;SDS011;36278;47.952;21.714;2024-03-06T02:47:10;20.50;;;14.03;;
43070;SDS011;36278;47.952;21.714;2024-03-06T02:49:36;21.47;;;15.13;;
43070;SDS011;36278;47.952;21.714;2024-03-06T02:52:01;19.00;;;13.77;;
43070;SDS011;36278;47.952;21.714;2024-03-06T02:54:27;17.07;;;12.93;;
43070;SDS011;36278;47.952;21.714;2024-03-06T02:56:52;19.50;;;13.97;;
43070;SDS011;36278;47.952;21.714;2024-03-06T02:59:18;17.80;;;12.50;;
43070;SDS011;36278;47.952;21.714;2024-03-06T03:01:43;19.23;;;13.80;;
43070;SDS011;36278;47.952;21.714;2024-03-06T03:04:09;18.80;;;13.90;;
43070;SDS011;36278;47.952;21.714;2024-03-06T03:06:35;18.93;;;13.90;;
43070;SDS011;36278;47.952;21.714;2024-03-06T03:09:01;21.07;;;13.73;;
43070;SDS011;36278;47.952;21.714;2024-03-06T03:11:29;19.43;;;12.93;;
43070;SDS011;36278;47.952;21.714;2024-03-06T03:13:55;19.80;;;14.43;;
43070;SDS011;36278;47.952;21.714;2024-03-06T03:16:20;19.50;;;13.10;;
43070;SDS011;36278;47.952;21.714;2024-03-06T03:18:46;20.27;;;13.37;;
43070;SDS011;36278;47.952;21.714;2024-03-06T03:21:13;19.40;;;13.20;;
43070;SDS011;36278;47.952;21.714;2024-03-06T03:23:39;17.77;;;12.27;;
43070;SDS011;36278;47.952;21.714;2024-03-06T03:26:05;17.70;;;12.80;;
43070;SDS011;36278;47.952;21.714;2024-03-06T03:28:31;17.60;;;13.30;;
43070;SDS011;36278;47.952;21.714;2024-03-06T03:30:58;16.13;;;12.57;;
43070;SDS011;36278;47.952;21.714;2024-03-06T03:33:23;19.80;;;12.73;;
43070;SDS011;36278;47.952;21.714;2024-03-06T03:35:49;18.23;;;12.87;;
43070;SDS011;36278;47.952;21.714;2024-03-06T03:38:14;17.73;;;12.77;;
43070;SDS011;36278;47.952;21.714;2024-03-06T03:40:40;20.80;;;13.47;;
43070;SDS011;36278;47.952;21.714;2024-03-06T03:43:05;17.47;;;12.13;;
43070;SDS011;36278;47.952;21.714;2024-03-06T03:45:33;17.30;;;12.17;;
43070;SDS011;36278;47.952;21.714;2024-03-06T03:48:00;19.97;;;12.07;;
43070;SDS011;36278;47.952;21.714;2024-03-06T03:50:27;18.80;;;12.90;;
43070;SDS011;36278;47.952;21.714;2024-03-06T03:52:54;20.53;;;12.70;;
43070;SDS011;36278;47.952;21.714;2024-03-06T03:55:20;17.60;;;12.43;;
43070;SDS011;36278;47.952;21.714;2024-03-06T03:57:45;18.33;;;12.27;;
43070;SDS011;36278;47.952;21.714;2024-03-06T04:00:11;17.47;;;13.20;;
43070;SDS011;36278;47.952;21.714;2024-03-06T04:02:38;17.73;;;12.50;;
43070;SDS011;36278;47.952;21.714;2024-03-06T04:05:04;17.87;;;12.03;;
43070;SDS011;36278;47.952;21.714;2024-03-06T04:07:30;18.37;;;11.90;;
43070;SDS011;36278;47.952;21.714;2024-03-06T04:09:55;17.43;;;12.13;;
43070;SDS011;36278;47.952;21.714;2024-03-06T04:12:20;16.40;;;12.30;;
43070;SDS011;36278;47.952;21.714;2024-03-06T04:14:46;17.03;;;11.70;;
43070;SDS011;36278;47.952;21.714;2024-03-06T04:17:11;17.73;;;11.90;;
43070;SDS011;36278;47.952;21.714;2024-03-06T04:19:37;18.00;;;11.97;;
43070;SDS011;36278;47.952;21.714;2024-03-06T04:22:02;17.23;;;12.47;;
43070;SDS011;36278;47.952;21.714;2024-03-06T04:24:28;15.83;;;12.10;;
43070;SDS011;36278;47.952;21.714;2024-03-06T04:26:54;17.73;;;11.67;;
43070;SDS011;36278;47.952;21.714;2024-03-06T04:29:19;16.20;;;10.93;;
43070;SDS011;36278;47.952;21.714;2024-03-06T04:31:44;19.30;;;11.83;;
43070;SDS011;36278;47.952;21.714;2024-03-06T04:34:10;17.00;;;12.77;;
43070;SDS011;36278;47.952;21.714;2024-03-06T04:36:35;18.23;;;11.83;;
43070;SDS011;36278;47.952;21.714;2024-03-06T04:39:01;19.00;;;12.10;;
43070;SDS011;36278;47.952;21.714;2024-03-06T04:41:32;16.40;;;11.57;;
43070;SDS011;36278;47.952;21.714;2024-03-06T04:43:57;17.13;;;11.60;;
43070;SDS011;36278;47.952;21.714;2024-03-06T04:46:24;16.07;;;11.53;;
43070;SDS011;36278;47.952;21.714;2024-03-06T04:48:50;18.53;;;12.23;;
43070;SDS011;36278;47.952;21.714;2024-03-06T04:51:15;16.70;;;11.47;;
43070;SDS011;36278;47.952;21.714;2024-03-06T04:53:41;16.33;;;12.17;;
43070;SDS011;36278;47.952;21.714;2024-03-06T04:56:07;18.53;;;11.33;;
43070;SDS011;36278;47.952;21.714;2024-03-06T04:58:32;16.33;;;10.93;;
43070;SDS011;36278;47.952;21.714;2024-03-06T05:00:58;15.93;;;10.50;;
43070;SDS011;36278;47.952;21.714;2024-03-06T05:03:23;16.53;;;11.73;;
43070;SDS011;36278;47.952;21.714;2024-03-06T05:05:49;26.60;;;17.77;;
43070;SDS011;36278;47.952;21.714;2024-03-06T05:08:14;17.87;;;11.03;;
43070;SDS011;36278;47.952;21.714;2024-03-06T05:10:39;14.70;;;10.53;;
43070;SDS011;36278;47.952;21.714;2024-03-06T05:13:05;16.00;;;10.27;;
43070;SDS011;36278;47.952;21.714;2024-03-06T05:15:30;13.50;;;10.07;;
43070;SDS011;36278;47.952;21.714;2024-03-06T05:17:56;14.80;;;10.03;;
43070;SDS011;36278;47.952;21.714;2024-03-06T05:20:21;15.20;;;10.37;;
43070;SDS011;36278;47.952;21.714;2024-03-06T05:22:47;15.87;;;10.47;;
43070;SDS011;36278;47.952;21.714;2024-03-06T05:25:12;16.37;;;11.07;;
43070;SDS011;36278;47.952;21.714;2024-03-06T05:27:38;15.27;;;10.03;;
43070;SDS011;36278;47.952;21.714;2024-03-06T05:30:04;14.37;;;9.73;;
43070;SDS011;36278;47.952;21.714;2024-03-06T05:32:30;13.37;;;9.80;;
43070;SDS011;36278;47.952;21.714;2024-03-06T05:34:55;14.17;;;9.90;;
43070;SDS011;36278;47.952;21.714;2024-03-06T05:37:23;15.53;;;9.97;;
43070;SDS011;36278;47.952;21.714;2024-03-06T05:39:48;16.77;;;10.20;;
43070;SDS011;36278;47.952;21.714;2024-03-06T05:42:14;23.43;;;10.33;;
43070;SDS011;36278;47.952;21.714;2024-03-06T05:44:39;15.33;;;10.17;;
43070;SDS011;36278;47.952;21.714;2024-03-06T05:47:05;14.27;;;9.07;;
43070;SDS011;36278;47.952;21.714;2024-03-06T05:49:31;16.67;;;9.83;;
43070;SDS011;36278;47.952;21.714;2024-03-06T05:51:57;12.70;;;9.33;;
43070;SDS011;36278;47.952;21.714;2024-03-06T05:54:23;13.73;;;9.13;;
43070;SDS011;36278;47.952;21.714;2024-03-06T05:56:49;15.53;;;8.17;;
43070;SDS011;36278;47.952;21.714;2024-03-06T05:59:19;18.53;;;9.57;;
43070;SDS011;36278;47.952;21.714;2024-03-06T06:01:44;15.43;;;9.50;;
43070;SDS011;36278;47.952;21.714;2024-03-06T06:04:10;13.70;;;9.57;;
43070;SDS011;36278;47.952;21.714;2024-03-06T06:06:36;14.20;;;8.27;;
43070;SDS011;36278;47.952;21.714;2024-03-06T06:09:03;15.00;;;8.90;;
43070;SDS011;36278;47.952;21.714;2024-03-06T06:11:32;12.00;;;9.17;;
43070;SDS011;36278;47.952;21.714;2024-03-06T06:14:01;12.90;;;8.70;;
43070;SDS011;36278;47.952;21.714;2024-03-06T06:16:26;13.63;;;9.07;;
43070;SDS011;36278;47.952;21.714;2024-03-06T06:18:52;12.77;;;8.67;;
43070;SDS011;36278;47.952;21.714;2024-03-06T06:21:18;12.57;;;8.60;;
43070;SDS011;36278;47.952;21.714;2024-03-06T06:23:43;11.10;;;8.33;;
43070;SDS011;36278;47.952;21.714;2024-03-06T06:26:09;12.20;;;8.33;;
43070;SDS011;36278;47.952;21.714;2024-03-06T06:28:36;11.83;;;8.33;;
43070;SDS011;36278;47.952;21.714;2024-03-06T06:31:03;13.17;;;8.03;;
43070;SDS011;36278;47.952;21.714;2024-03-06T06:33:29;15.07;;;8.67;;
43070;SDS011;36278;47.952;21.714;2024-03-06T06:35:55;13.03;;;8.07;;
43070;SDS011;36278;47.952;21.714;2024-03-06T06:38:21;12.77;;;7.70;;
43070;SDS011;36278;47.952;21.714;2024-03-06T06:40:47;11.23;;;7.53;;
43070;SDS011;36278;47.952;21.714;2024-03-06T06:43:13;13.13;;;8.90;;
43070;SDS011;36278;47.952;21.714;2024-03-06T06:45:40;11.90;;;8.30;;
43070;SDS011;36278;47.952;21.714;2024-03-06T06:48:06;14.17;;;7.93;;
43070;SDS011;36278;47.952;21.714;2024-03-06T06:50:34;13.00;;;9.17;;
43070;SDS011;36278;47.952;21.714;2024-03-06T06:53:00;11.43;;;7.87;;
43070;SDS011;36278;47.952;21.714;2024-03-06T06:55:25;11.57;;;8.13;;
43070;SDS011;36278;47.952;21.714;2024-03-06T06:57:51;13.10;;;8.77;;
43070;SDS011;36278;47.952;21.714;2024-03-06T07:00:16;11.40;;;8.90;;
43070;SDS011;36278;47.952;21.714;2024-03-06T07:02:43;11.50;;;7.93;;
43070;SDS011;36278;47.952;21.714;2024-03-06T07:05:10;16.33;;;8.70;;
43070;SDS011;36278;47.952;21.714;2024-03-06T07:07:36;12.73;;;8.37;;
43070;SDS011;36278;47.952;21.714;2024-03-06T07:10:03;16.47;;;9.17;;
43070;SDS011;36278;47.952;21.714;2024-03-06T07:12:31;17.23;;;9.27;;
43070;SDS011;36278;47.952;21.714;2024-03-06T07:14:57;10.60;;;8.00;;
43070;SDS011;36278;47.952;21.714;2024-03-06T07:17:23;11.83;;;8.63;;
43070;SDS011;36278;47.952;21.714;2024-03-06T07:19:48;12.20;;;8.50;;
43070;SDS011;36278;47.952;21.714;2024-03-06T07:22:15;14.23;;;8.57;;
43070;SDS011;36278;47.952;21.714;2024-03-06T07:24:41;13.37;;;9.00;;
43070;SDS011;36278;47.952;21.714;2024-03-06T07:27:07;12.37;;;8.63;;
43070;SDS011;36278;47.952;21.714;2024-03-06T07:29:34;18.53;;;8.80;;
43070;SDS011;36278;47.952;21.714;2024-03-06T07:32:00;15.77;;;9.37;;
43070;SDS011;36278;47.952;21.714;2024-03-06T07:34:26;14.97;;;8.90;;
43070;SDS011;36278;47.952;21.714;2024-03-06T07:36:52;13.60;;;8.90;;
43070;SDS011;36278;47.952;21.714;2024-03-06T07:39:21;13.77;;;9.20;;
43070;SDS011;36278;47.952;21.714;2024-03-06T07:41:46;12.60;;;8.17;;
43070;SDS011;36278;47.952;21.714;2024-03-06T07:44:12;11.83;;;8.87;;
43070;SDS011;36278;47.952;21.714;2024-03-06T07:46:38;17.77;;;9.17;;
43070;SDS011;36278;47.952;21.714;2024-03-06T07:49:04;12.20;;;8.63;;
43070;SDS011;36278;47.952;21.714;2024-03-06T07:51:30;14.90;;;9.00;;
43070;SDS011;36278;47.952;21.714;2024-03-06T07:53:56;12.47;;;8.20;;
43070;SDS011;36278;47.952;21.714;2024-03-06T07:56:22;13.20;;;8.80;;
43070;SDS011;36278;47.952;21.714;2024-03-06T07:58:48;12.80;;;8.60;;
43070;SDS011;36278;47.952;21.714;2024-03-06T08:01:14;12.77;;;9.10;;
43070;SDS011;36278;47.952;21.714;2024-03-06T08:03:40;17.10;;;9.10;;
43070;SDS011;36278;47.952;21.714;2024-03-06T08:06:08;12.57;;;8.30;;
43070;SDS011;36278;47.952;21.714;2024-03-06T08:08:34;13.93;;;8.97;;
43070;SDS011;36278;47.952;21.714;2024-03-06T08:11:00;14.30;;;9.70;;
43070;SDS011;36278;47.952;21.714;2024-03-06T08:13:25;13.70;;;9.27;;
43070;SDS011;36278;47.952;21.714;2024-03-06T08:15:50;14.20;;;9.13;;
43070;SDS011;36278;47.952;21.714;2024-03-06T08:18:16;14.53;;;10.00;;
43070;SDS011;36278;47.952;21.714;2024-03-06T08:20:42;14.63;;;10.13;;
43070;SDS011;36278;47.952;21.714;2024-03-06T08:23:08;14.90;;;9.30;;
43070;SDS011;36278;47.952;21.714;2024-03-06T08:25:35;14.47;;;9.70;;
43070;SDS011;36278;47.952;21.714;2024-03-06T08:28:01;12.60;;;9.03;;
43070;SDS011;36278;47.952;21.714;2024-03-06T08:30:35;14.00;;;9.17;;
43070;SDS011;36278;47.952;21.714;2024-03-06T08:33:00;12.87;;;9.27;;
43070;SDS011;36278;47.952;21.714;2024-03-06T08:35:26;14.77;;;9.67;;
43070;SDS011;36278;47.952;21.714;2024-03-06T08:37:52;16.73;;;9.70;;
43070;SDS011;36278;47.952;21.714;2024-03-06T08:40:17;14.10;;;9.87;;
43070;SDS011;36278;47.952;21.714;2024-03-06T08:42:43;15.53;;;9.40;;
43070;SDS011;36278;47.952;21.714;2024-03-06T08:45:10;14.57;;;9.17;;
43070;SDS011;36278;47.952;21.714;2024-03-06T08:47:36;12.13;;;8.37;;
43070;SDS011;36278;47.952;21.714;2024-03-06T08:50:02;12.37;;;8.80;;
43070;SDS011;36278;47.952;21.714;2024-03-06T08:52:28;13.67;;;9.03;;
43070;SDS011;36278;47.952;21.714;2024-03-06T08:54:55;12.93;;;9.20;;
43070;SDS011;36278;47.952;21.714;2024-03-06T08:57:21;13.03;;;9.20;;
43070;SDS011;36278;47.952;21.714;2024-03-06T08:59:47;12.37;;;9.37;;
43070;SDS011;36278;47.952;21.714;2024-03-06T09:02:13;13.73;;;8.60;;
43070;SDS011;36278;47.952;21.714;2024-03-06T09:04:40;11.77;;;8.70;;
43070;SDS011;36278;47.952;21.714;2024-03-06T09:07:09;13.53;;;9.07;;
43070;SDS011;36278;47.952;21.714;2024-03-06T09:09:36;11.30;;;8.40;;
43070;SDS011;36278;47.952;21.714;2024-03-06T09:12:05;12.47;;;9.20;;
43070;SDS011;36278;47.952;21.714;2024-03-06T09:14:32;14.80;;;9.70;;
43070;SDS011;36278;47.952;21.714;2024-03-06T09:16:58;11.47;;;8.23;;
43070;SDS011;36278;47.952;21.714;2024-03-06T09:19:24;11.13;;;8.23;;
43070;SDS011;36278;47.952;21.714;2024-03-06T09:21:52;12.73;;;9.37;;
43070;SDS011;36278;47.952;21.714;2024-03-06T09:24:19;12.47;;;8.90;;
43070;SDS011;36278;47.952;21.714;2024-03-06T09:26:48;14.20;;;8.67;;
43070;SDS011;36278;47.952;21.714;2024-03-06T09:29:15;12.70;;;8.93;;
43070;SDS011;36278;47.952;21.714;2024-03-06T09:31:41;15.00;;;9.40;;
43070;SDS011;36278;47.952;21.714;2024-03-06T09:34:07;13.70;;;9.77;;
43070;SDS011;36278;47.952;21.714;2024-03-06T09:36:32;13.60;;;9.57;;
43070;SDS011;36278;47.952;21.714;2024-03-06T09:38:58;14.13;;;9.67;;
43070;SDS011;36278;47.952;21.714;2024-03-06T09:41:24;12.17;;;8.70;;
43070;SDS011;36278;47.952;21.714;2024-03-06T09:43:50;12.17;;;8.53;;
43070;SDS011;36278;47.952;21.714;2024-03-06T09:46:17;13.30;;;9.20;;
43070;SDS011;36278;47.952;21.714;2024-03-06T09:48:46;17.83;;;9.30;;
43070;SDS011;36278;47.952;21.714;2024-03-06T09:51:14;12.83;;;9.20;;
43070;SDS011;36278;47.952;21.714;2024-03-06T09:53:39;12.83;;;8.57;;
43070;SDS011;36278;47.952;21.714;2024-03-06T09:56:07;12.10;;;9.00;;
43070;SDS011;36278;47.952;21.714;2024-03-06T09:58:33;14.30;;;8.83;;
43070;SDS011;36278;47.952;21.714;2024-03-06T10:00:59;11.00;;;8.80;;
43070;SDS011;36278;47.952;21.714;2024-03-06T10:03:26;11.73;;;9.10;;
43070;SDS011;36278;47.952;21.714;2024-03-06T10:05:52;12.10;;;8.87;;
43070;SDS011;36278;47.952;21.714;2024-03-06T10:08:19;14.27;;;9.77;;
43070;SDS011;36278;47.952;21.714;2024-03-06T10:10:46;14.60;;;9.37;;
43070;SDS011;36278;47.952;21.714;2024-03-06T10:17:01;13.20;;;9.23;;
43070;SDS011;36278;47.952;21.714;2024-03-06T10:19:27;14.10;;;10.00;;
43070;SDS011;36278;47.952;21.714;2024-03-06T10:21:54;12.97;;;9.17;;
43070;SDS011;36278;47.952;21.714;2024-03-06T10:24:24;12.57;;;8.90;;
43070;SDS011;36278;47.952;21.714;2024-03-06T10:26:57;13.87;;;9.83;;
43070;SDS011;36278;47.952;21.714;2024-03-06T10:29:26;12.00;;;8.70;;
43070;SDS011;36278;47.952;21.714;2024-03-06T10:31:56;10.63;;;8.20;;
43070;SDS011;36278;47.952;21.714;2024-03-06T10:38:16;12.43;;;8.83;;
43070;SDS011;36278;47.952;21.714;2024-03-06T10:40:45;12.00;;;9.07;;
43070;SDS011;36278;47.952;21.714;2024-03-06T10:43:11;15.20;;;8.93;;
43070;SDS011;36278;47.952;21.714;2024-03-06T10:45:48;12.13;;;8.67;;
43070;SDS011;36278;47.952;21.714;2024-03-06T10:48:22;14.47;;;9.07;;
43070;SDS011;36278;47.952;21.714;2024-03-06T10:50:53;11.73;;;8.57;;
43070;SDS011;36278;47.952;21.714;2024-03-06T10:53:20;10.87;;;8.37;;
43070;SDS011;36278;47.952;21.714;2024-03-06T10:55:48;13.37;;;9.00;;
43070;SDS011;36278;47.952;21.714;2024-03-06T10:58:15;13.20;;;9.40;;
43070;SDS011;36278;47.952;21.714;2024-03-06T11:00:45;11.10;;;9.00;;
43070;SDS011;36278;47.952;21.714;2024-03-06T11:03:14;11.02;;;8.20;;
43070;SDS011;36278;47.952;21.714;2024-03-06T11:05:41;11.50;;;8.73;;
43070;SDS011;36278;47.952;21.714;2024-03-06T11:08:11;14.20;;;9.20;;
43070;SDS011;36278;47.952;21.714;2024-03-06T11:10:39;12.27;;;8.90;;
43070;SDS011;36278;47.952;21.714;2024-03-06T11:13:20;12.90;;;8.97;;
43070;SDS011;36278;47.952;21.714;2024-03-06T11:15:50;15.03;;;8.77;;
43070;SDS011;36278;47.952;21.714;2024-03-06T11:23:30;17.90;;;9.03;;
43070;SDS011;36278;47.952;21.714;2024-03-06T11:26:03;10.93;;;8.40;;
43070;SDS011;36278;47.952;21.714;2024-03-06T11:28:33;14.25;;;9.35;;
43070;SDS011;36278;47.952;21.714;2024-03-06T11:31:01;12.57;;;8.97;;
43070;SDS011;36278;47.952;21.714;2024-03-06T11:33:44;12.77;;;8.90;;
43070;SDS011;36278;47.952;21.714;2024-03-06T11:38:46;13.33;;;9.23;;
43070;SDS011;36278;47.952;21.714;2024-03-06T11:41:22;12.40;;;9.07;;
43070;SDS011;36278;47.952;21.714;2024-03-06T11:43:50;15.77;;;9.00;;
43070;SDS011;36278;47.952;21.714;2024-03-06T11:46:22;11.80;;;9.00;;
43070;SDS011;36278;47.952;21.714;2024-03-06T11:49:06;12.30;;;8.50;;
43070;SDS011;36278;47.952;21.714;2024-03-06T11:51:40;11.57;;;9.20;;
43070;SDS011;36278;47.952;21.714;2024-03-06T11:54:06;13.60;;;9.07;;
43070;SDS011;36278;47.952;21.714;2024-03-06T11:56:32;14.03;;;10.00;;
43070;SDS011;36278;47.952;21.714;2024-03-06T11:58:58;14.23;;;10.03;;
43070;SDS011;36278;47.952;21.714;2024-03-06T12:01:24;13.73;;;9.93;;
43070;SDS011;36278;47.952;21.714;2024-03-06T12:03:52;13.67;;;10.27;;
43070;SDS011;36278;47.952;21.714;2024-03-06T12:06:19;15.23;;;9.73;;
43070;SDS011;36278;47.952;21.714;2024-03-06T12:08:45;13.30;;;10.03;;
43070;SDS011;36278;47.952;21.714;2024-03-06T12:11:11;15.57;;;10.53;;
43070;SDS011;36278;47.952;21.714;2024-03-06T12:13:36;12.87;;;9.57;;
43070;SDS011;36278;47.952;21.714;2024-03-06T12:16:06;16.93;;;9.70;;
43070;SDS011;36278;47.952;21.714;2024-03-06T12:18:35;13.77;;;9.48;;
43070;SDS011;36278;47.952;21.714;2024-03-06T12:21:02;14.67;;;9.90;;
43070;SDS011;36278;47.952;21.714;2024-03-06T12:23:30;14.07;;;9.70;;
43070;SDS011;36278;47.952;21.714;2024-03-06T12:26:02;11.07;;;8.90;;
43070;SDS011;36278;47.952;21.714;2024-03-06T12:28:31;15.03;;;11.50;;
43070;SDS011;36278;47.952;21.714;2024-03-06T12:30:57;15.53;;;10.13;;
43070;SDS011;36278;47.952;21.714;2024-03-06T12:33:27;12.17;;;10.40;;
43070;SDS011;36278;47.952;21.714;2024-03-06T12:38:54;12.43;;;10.23;;
43070;SDS011;36278;47.952;21.714;2024-03-06T12:41:21;11.63;;;9.50;;
43070;SDS011;36278;47.952;21.714;2024-03-06T12:43:47;12.93;;;9.63;;
43070;SDS011;36278;47.952;21.714;2024-03-06T12:46:12;14.33;;;10.67;;
43070;SDS011;36278;47.952;21.714;2024-03-06T12:48:38;15.23;;;10.07;;
43070;SDS011;36278;47.952;21.714;2024-03-06T12:51:03;13.50;;;10.73;;
43070;SDS011;36278;47.952;21.714;2024-03-06T12:53:32;14.03;;;10.23;;
43070;SDS011;36278;47.952;21.714;2024-03-06T12:56:00;13.53;;;10.30;;
43070;SDS011;36278;47.952;21.714;2024-03-06T12:58:26;13.83;;;11.13;;
43070;SDS011;36278;47.952;21.714;2024-03-06T13:01:00;15.13;;;11.27;;
43070;SDS011;36278;47.952;21.714;2024-03-06T13:03:27;13.30;;;10.03;;
43070;SDS011;36278;47.952;21.714;2024-03-06T13:05:53;12.13;;;8.97;;
43070;SDS011;36278;47.952;21.714;2024-03-06T13:08:20;13.20;;;10.07;;
43070;SDS011;36278;47.952;21.714;2024-03-06T13:10:46;13.47;;;9.40;;
43070;SDS011;36278;47.952;21.714;2024-03-06T13:13:12;13.20;;;9.67;;
43070;SDS011;36278;47.952;21.714;2024-03-06T13:15:38;13.03;;;9.40;;
43070;SDS011;36278;47.952;21.714;2024-03-06T13:18:04;16.77;;;10.40;;
43070;SDS011;36278;47.952;21.714;2024-03-06T13:20:30;15.73;;;12.70;;
43070;SDS011;36278;47.952;21.714;2024-03-06T13:22:56;14.00;;;11.50;;
43070;SDS011;36278;47.952;21.714;2024-03-06T13:25:22;22.97;;;17.50;;
43070;SDS011;36278;47.952;21.714;2024-03-06T13:27:47;12.10;;;9.00;;
43070;SDS011;36278;47.952;21.714;2024-03-06T13:30:13;11.80;;;8.93;;
43070;SDS011;36278;47.952;21.714;2024-03-06T13:32:39;12.77;;;8.90;;
43070;SDS011;36278;47.952;21.714;2024-03-06T13:35:05;12.40;;;9.03;;
43070;SDS011;36278;47.952;21.714;2024-03-06T13:37:32;13.53;;;10.07;;
43070;SDS011;36278;47.952;21.714;2024-03-06T13:40:01;12.43;;;8.60;;
43070;SDS011;36278;47.952;21.714;2024-03-06T13:42:28;10.07;;;8.23;;
43070;SDS011;36278;47.952;21.714;2024-03-06T13:44:54;12.30;;;8.90;;
43070;SDS011;36278;47.952;21.714;2024-03-06T13:47:24;11.10;;;8.57;;
43070;SDS011;36278;47.952;21.714;2024-03-06T13:49:51;12.07;;;8.53;;
43070;SDS011;36278;47.952;21.714;2024-03-06T13:52:17;11.07;;;8.73;;
43070;SDS011;36278;47.952;21.714;2024-03-06T13:54:46;11.90;;;8.93;;
43070;SDS011;36278;47.952;21.714;2024-03-06T13:57:15;10.03;;;8.20;;
43070;SDS011;36278;47.952;21.714;2024-03-06T13:59:42;11.57;;;8.03;;
43070;SDS011;36278;47.952;21.714;2024-03-06T14:02:08;10.43;;;7.20;;
43070;SDS011;36278;47.952;21.714;2024-03-06T14:04:34;9.40;;;6.80;;
43070;SDS011;36278;47.952;21.714;2024-03-06T14:07:00;9.03;;;6.40;;
43070;SDS011;36278;47.952;21.714;2024-03-06T14:09:26;8.30;;;6.00;;
43070;SDS011;36278;47.952;21.714;2024-03-06T14:11:52;7.50;;;5.97;;
43070;SDS011;36278;47.952;21.714;2024-03-06T14:14:19;6.97;;;5.43;;
43070;SDS011;36278;47.952;21.714;2024-03-06T14:16:45;8.80;;;5.80;;
43070;SDS011;36278;47.952;21.714;2024-03-06T14:19:11;7.60;;;6.20;;
43070;SDS011;36278;47.952;21.714;2024-03-06T14:21:37;9.20;;;6.93;;
43070;SDS011;36278;47.952;21.714;2024-03-06T14:24:04;8.63;;;6.73;;
43070;SDS011;36278;47.952;21.714;2024-03-06T14:26:34;10.10;;;6.50;;
43070;SDS011;36278;47.952;21.714;2024-03-06T14:29:00;10.30;;;6.90;;
43070;SDS011;36278;47.952;21.714;2024-03-06T14:31:27;10.50;;;6.47;;